sensor_id;sensor_type;location;lat;lon;timestamp;P1;durP1;ratioP1;P2;durP2;ratioP2
46110;SDS011;31849;55.992;37.252;2022-09-09T00:04:42;4.20;;;2.80;;
46110;SDS011;31849;55.992;37.252;2022-09-09T00:09:50;4.07;;;2.50;;
46110;SDS011;31849;55.992;37.252;2022-09-09T00:15:05;5.22;;;2.60;;
46110;SDS011;31849;55.992;37.252;2022-09-09T00:20:16;3.80;;;2.30;;
46110;SDS011;31849;55.992;37.252;2022-09-09T00:25:33;4.88;;;2.53;;
46110;SDS011;31849;55.992;37.252;2022-09-09T00:30:44;4.13;;;2.58;;
46110;SDS011;31849;55.992;37.252;2022-09-09T00:35:51;5.47;;;2.83;;
46110;SDS011;31849;55.992;37.252;2022-09-09T00:40:58;5.10;;;2.70;;
46110;SDS011;31849;55.992;37.252;2022-09-09T00:51:56;4.10;;;2.90;;
46110;SDS011;31849;55.992;37.252;2022-09-09T00:57:12;4.60;;;2.63;;
46110;SDS011;31849;55.992;37.252;2022-09-09T01:02:27;4.82;;;2.78;;
46110;SDS011;31849;55.992;37.252;2022-09-09T01:07:33;4.95;;;2.72;;
46110;SDS011;31849;55.992;37.252;2022-09-09T01:12:42;3.75;;;2.45;;
46110;SDS011;31849;55.992;37.252;2022-09-09T01:17:51;3.90;;;2.80;;
46110;SDS011;31849;55.992;37.252;2022-09-09T01:23:05;4.50;;;2.53;;
46110;SDS011;31849;55.992;37.252;2022-09-09T01:28:31;4.22;;;2.70;;
46110;SDS011;31849;55.992;37.252;2022-09-09T01:33:38;3.67;;;2.42;;
46110;SDS011;31849;55.992;37.252;2022-09-09T01:38:42;3.90;;;2.70;;
46110;SDS011;31849;55.992;37.252;2022-09-09T01:43:47;5.00;;;2.23;;
46110;SDS011;31849;55.992;37.252;2022-09-09T01:48:55;3.85;;;2.60;;
46110;SDS011;31849;55.992;37.252;2022-09-09T01:54:00;3.75;;;2.45;;
46110;SDS011;31849;55.992;37.252;2022-09-09T01:59:13;4.00;;;2.22;;
46110;SDS011;31849;55.992;37.252;2022-09-09T02:04:30;3.35;;;2.10;;
46110;SDS011;31849;55.992;37.252;2022-09-09T02:09:40;3.50;;;2.05;;
46110;SDS011;31849;55.992;37.252;2022-09-09T02:15:03;3.55;;;2.20;;
46110;SDS011;31849;55.992;37.252;2022-09-09T02:20:14;3.10;;;2.10;;
46110;SDS011;31849;55.992;37.252;2022-09-09T02:25:20;3.97;;;2.23;;
46110;SDS011;31849;55.992;37.252;2022-09-09T02:30:29;3.78;;;2.20;;
46110;SDS011;31849;55.992;37.252;2022-09-09T02:35:36;4.80;;;2.17;;
46110;SDS011;31849;55.992;37.252;2022-09-09T02:40:41;5.38;;;2.47;;
46110;SDS011;31849;55.992;37.252;2022-09-09T02:45:49;4.82;;;2.53;;
46110;SDS011;31849;55.992;37.252;2022-09-09T02:51:05;5.10;;;2.72;;
46110;SDS011;31849;55.992;37.252;2022-09-09T02:56:13;5.20;;;3.17;;
46110;SDS011;31849;55.992;37.252;2022-09-09T03:01:21;5.30;;;2.40;;
46110;SDS011;31849;55.992;37.252;2022-09-09T03:06:27;8.80;;;2.88;;
46110;SDS011;31849;55.992;37.252;2022-09-09T03:11:31;6.03;;;2.78;;
46110;SDS011;31849;55.992;37.252;2022-09-09T03:16:36;4.82;;;2.53;;
46110;SDS011;31849;55.992;37.252;2022-09-09T03:26:43;5.15;;;2.72;;
46110;SDS011;31849;55.992;37.252;2022-09-09T03:31:48;7.63;;;3.53;;
46110;SDS011;31849;55.992;37.252;2022-09-09T03:36:53;5.63;;;3.45;;
46110;SDS011;31849;55.992;37.252;2022-09-09T03:41:57;5.30;;;2.90;;
46110;SDS011;31849;55.992;37.252;2022-09-09T03:47:02;6.03;;;2.88;;
46110;SDS011;31849;55.992;37.252;2022-09-09T03:52:07;4.85;;;2.47;;
46110;SDS011;31849;55.992;37.252;2022-09-09T03:57:11;4.00;;;2.50;;
46110;SDS011;31849;55.992;37.252;2022-09-09T04:02:20;5.03;;;2.20;;
46110;SDS011;31849;55.992;37.252;2022-09-09T04:07:26;3.92;;;2.40;;
46110;SDS011;31849;55.992;37.252;2022-09-09T04:12:30;3.45;;;2.00;;
46110;SDS011;31849;55.992;37.252;2022-09-09T04:17:35;2.17;;;1.50;;
46110;SDS011;31849;55.992;37.252;2022-09-09T04:22:39;3.35;;;1.20;;
46110;SDS011;31849;55.992;37.252;2022-09-09T04:27:42;2.05;;;1.48;;
46110;SDS011;31849;55.992;37.252;2022-09-09T04:32:48;2.63;;;1.53;;
46110;SDS011;31849;55.992;37.252;2022-09-09T04:37:51;3.20;;;1.60;;
46110;SDS011;31849;55.992;37.252;2022-09-09T04:42:55;3.95;;;1.30;;
46110;SDS011;31849;55.992;37.252;2022-09-09T04:48:02;5.10;;;1.60;;
46110;SDS011;31849;55.992;37.252;2022-09-09T04:58:11;5.03;;;1.40;;
46110;SDS011;31849;55.992;37.252;2022-09-09T05:03:16;2.20;;;1.50;;
46110;SDS011;31849;55.992;37.252;2022-09-09T05:08:20;3.95;;;1.40;;
46110;SDS011;31849;55.992;37.252;2022-09-09T05:13:24;4.38;;;1.20;;
46110;SDS011;31849;55.992;37.252;2022-09-09T05:18:30;4.53;;;2.38;;
46110;SDS011;31849;55.992;37.252;2022-09-09T05:23:33;5.38;;;1.42;;
46110;SDS011;31849;55.992;37.252;2022-09-09T05:28:37;3.40;;;1.20;;
46110;SDS011;31849;55.992;37.252;2022-09-09T05:33:45;1.70;;;1.02;;
46110;SDS011;31849;55.992;37.252;2022-09-09T05:38:51;2.28;;;1.10;;
46110;SDS011;31849;55.992;37.252;2022-09-09T05:43:55;2.58;;;1.00;;
46110;SDS011;31849;55.992;37.252;2022-09-09T05:49:02;1.77;;;0.95;;
46110;SDS011;31849;55.992;37.252;2022-09-09T05:54:07;1.92;;;1.00;;
46110;SDS011;31849;55.992;37.252;2022-09-09T06:04:15;1.85;;;0.90;;
46110;SDS011;31849;55.992;37.252;2022-09-09T06:09:19;2.05;;;1.05;;
46110;SDS011;31849;55.992;37.252;2022-09-09T06:14:25;2.08;;;0.98;;
46110;SDS011;31849;55.992;37.252;2022-09-09T06:19:30;1.60;;;1.00;;
46110;SDS011;31849;55.992;37.252;2022-09-09T06:24:33;1.67;;;1.10;;
46110;SDS011;31849;55.992;37.252;2022-09-09T06:29:37;1.73;;;0.68;;
46110;SDS011;31849;55.992;37.252;2022-09-09T06:34:42;2.10;;;1.00;;
46110;SDS011;31849;55.992;37.252;2022-09-09T06:39:45;2.20;;;1.00;;
46110;SDS011;31849;55.992;37.252;2022-09-09T06:44:53;1.92;;;0.98;;
46110;SDS011;31849;55.992;37.252;2022-09-09T06:49:58;1.83;;;0.90;;
46110;SDS011;31849;55.992;37.252;2022-09-09T06:55:01;1.60;;;0.90;;
46110;SDS011;31849;55.992;37.252;2022-09-09T07:00:06;2.83;;;1.10;;
46110;SDS011;31849;55.992;37.252;2022-09-09T07:05:13;2.00;;;0.80;;
46110;SDS011;31849;55.992;37.252;2022-09-09T07:10:17;1.60;;;0.95;;
46110;SDS011;31849;55.992;37.252;2022-09-09T07:15:21;1.33;;;0.70;;
46110;SDS011;31849;55.992;37.252;2022-09-09T07:25:30;1.60;;;0.77;;
46110;SDS011;31849;55.992;37.252;2022-09-09T07:30:34;1.20;;;0.70;;
46110;SDS011;31849;55.992;37.252;2022-09-09T07:35:39;2.88;;;0.80;;
46110;SDS011;31849;55.992;37.252;2022-09-09T07:40:43;1.67;;;0.70;;
46110;SDS011;31849;55.992;37.252;2022-09-09T07:45:47;1.60;;;0.80;;
46110;SDS011;31849;55.992;37.252;2022-09-09T07:56:06;1.70;;;0.70;;
46110;SDS011;31849;55.992;37.252;2022-09-09T08:01:13;1.83;;;0.90;;
46110;SDS011;31849;55.992;37.252;2022-09-09T08:06:21;2.88;;;0.90;;
46110;SDS011;31849;55.992;37.252;2022-09-09T08:11:27;2.33;;;0.70;;
46110;SDS011;31849;55.992;37.252;2022-09-09T08:16:37;3.65;;;1.77;;
46110;SDS011;31849;55.992;37.252;2022-09-09T08:21:44;2.42;;;0.90;;
46110;SDS011;31849;55.992;37.252;2022-09-09T08:26:50;1.50;;;0.80;;
46110;SDS011;31849;55.992;37.252;2022-09-09T08:31:56;2.58;;;0.95;;
46110;SDS011;31849;55.992;37.252;2022-09-09T08:37:02;1.60;;;0.80;;
46110;SDS011;31849;55.992;37.252;2022-09-09T08:42:09;2.22;;;0.90;;
46110;SDS011;31849;55.992;37.252;2022-09-09T08:47:33;3.38;;;0.90;;
46110;SDS011;31849;55.992;37.252;2022-09-09T08:52:45;2.83;;;0.88;;
46110;SDS011;31849;55.992;37.252;2022-09-09T08:57:54;1.40;;;0.73;;
46110;SDS011;31849;55.992;37.252;2022-09-09T09:03:04;1.95;;;0.77;;
46110;SDS011;31849;55.992;37.252;2022-09-09T09:08:17;2.40;;;0.70;;
46110;SDS011;31849;55.992;37.252;2022-09-09T09:13:31;2.40;;;0.80;;
46110;SDS011;31849;55.992;37.252;2022-09-09T09:18:45;4.38;;;1.08;;
46110;SDS011;31849;55.992;37.252;2022-09-09T09:23:51;1.53;;;0.70;;
46110;SDS011;31849;55.992;37.252;2022-09-09T09:29:00;2.13;;;0.80;;
46110;SDS011;31849;55.992;37.252;2022-09-09T09:34:12;5.55;;;1.10;;
46110;SDS011;31849;55.992;37.252;2022-09-09T09:51:19;3.00;;;0.90;;
46110;SDS011;31849;55.992;37.252;2022-09-09T09:56:28;2.50;;;0.88;;
46110;SDS011;31849;55.992;37.252;2022-09-09T10:01:33;3.67;;;0.73;;
46110;SDS011;31849;55.992;37.252;2022-09-09T10:07:17;1.77;;;1.00;;
46110;SDS011;31849;55.992;37.252;2022-09-09T10:12:26;1.48;;;0.75;;
46110;SDS011;31849;55.992;37.252;2022-09-09T10:17:47;1.27;;;0.70;;
46110;SDS011;31849;55.992;37.252;2022-09-09T10:23:50;2.47;;;0.80;;
46110;SDS011;31849;55.992;37.252;2022-09-09T10:34:53;1.83;;;0.75;;
46110;SDS011;31849;55.992;37.252;2022-09-09T10:40:02;1.40;;;0.70;;
46110;SDS011;31849;55.992;37.252;2022-09-09T10:45:22;1.88;;;0.80;;
46110;SDS011;31849;55.992;37.252;2022-09-09T10:50:40;1.73;;;0.80;;
46110;SDS011;31849;55.992;37.252;2022-09-09T10:56:06;2.38;;;0.90;;
46110;SDS011;31849;55.992;37.252;2022-09-09T11:07:21;2.85;;;0.85;;
46110;SDS011;31849;55.992;37.252;2022-09-09T11:12:31;2.65;;;0.70;;
46110;SDS011;31849;55.992;37.252;2022-09-09T11:17:42;1.45;;;0.70;;
46110;SDS011;31849;55.992;37.252;2022-09-09T11:22:53;1.20;;;0.60;;
46110;SDS011;31849;55.992;37.252;2022-09-09T11:28:06;1.55;;;0.70;;
46110;SDS011;31849;55.992;37.252;2022-09-09T11:33:27;2.33;;;0.85;;
46110;SDS011;31849;55.992;37.252;2022-09-09T11:38:54;2.67;;;0.88;;
46110;SDS011;31849;55.992;37.252;2022-09-09T11:44:09;1.27;;;0.70;;
46110;SDS011;31849;55.992;37.252;2022-09-09T11:49:25;2.50;;;1.00;;
46110;SDS011;31849;55.992;37.252;2022-09-09T11:54:34;3.72;;;0.85;;
46110;SDS011;31849;55.992;37.252;2022-09-09T11:59:50;2.30;;;0.70;;
46110;SDS011;31849;55.992;37.252;2022-09-09T12:04:55;2.25;;;0.90;;
46110;SDS011;31849;55.992;37.252;2022-09-09T12:15:46;1.85;;;0.93;;
46110;SDS011;31849;55.992;37.252;2022-09-09T12:20:54;2.20;;;0.80;;
46110;SDS011;31849;55.992;37.252;2022-09-09T12:32:02;3.00;;;1.00;;
46110;SDS011;31849;55.992;37.252;2022-09-09T12:37:13;3.28;;;1.95;;
46110;SDS011;31849;55.992;37.252;2022-09-09T12:42:25;3.45;;;1.02;;
46110;SDS011;31849;55.992;37.252;2022-09-09T12:47:38;1.83;;;0.98;;
46110;SDS011;31849;55.992;37.252;2022-09-09T12:52:47;4.70;;;0.90;;
46110;SDS011;31849;55.992;37.252;2022-09-09T12:57:55;2.70;;;0.80;;
46110;SDS011;31849;55.992;37.252;2022-09-09T13:03:02;2.38;;;0.98;;
46110;SDS011;31849;55.992;37.252;2022-09-09T13:08:22;1.60;;;0.80;;
46110;SDS011;31849;55.992;37.252;2022-09-09T13:13:29;2.15;;;0.90;;
46110;SDS011;31849;55.992;37.252;2022-09-09T13:18:40;2.75;;;0.90;;
46110;SDS011;31849;55.992;37.252;2022-09-09T13:23:48;2.85;;;1.20;;
46110;SDS011;31849;55.992;37.252;2022-09-09T13:29:07;1.70;;;1.00;;
46110;SDS011;31849;55.992;37.252;2022-09-09T13:34:26;2.10;;;0.90;;
46110;SDS011;31849;55.992;37.252;2022-09-09T13:39:31;1.98;;;0.90;;
46110;SDS011;31849;55.992;37.252;2022-09-09T13:44:39;1.80;;;1.00;;
46110;SDS011;31849;55.992;37.252;2022-09-09T13:49:45;2.70;;;1.20;;
46110;SDS011;31849;55.992;37.252;2022-09-09T13:54:50;2.60;;;1.30;;
46110;SDS011;31849;55.992;37.252;2022-09-09T13:59:58;1.80;;;0.90;;
46110;SDS011;31849;55.992;37.252;2022-09-09T14:05:06;2.20;;;1.02;;
46110;SDS011;31849;55.992;37.252;2022-09-09T14:15:17;2.22;;;1.10;;
46110;SDS011;31849;55.992;37.252;2022-09-09T14:20:21;2.45;;;1.20;;
46110;SDS011;31849;55.992;37.252;2022-09-09T14:30:32;2.42;;;1.02;;
46110;SDS011;31849;55.992;37.252;2022-09-09T14:35:37;2.70;;;1.58;;
46110;SDS011;31849;55.992;37.252;2022-09-09T14:40:44;2.22;;;1.00;;
46110;SDS011;31849;55.992;37.252;2022-09-09T14:45:52;3.83;;;1.30;;
46110;SDS011;31849;55.992;37.252;2022-09-09T14:50:57;1.83;;;1.02;;
46110;SDS011;31849;55.992;37.252;2022-09-09T14:56:09;2.80;;;1.20;;
46110;SDS011;31849;55.992;37.252;2022-09-09T15:01:17;2.47;;;1.13;;
46110;SDS011;31849;55.992;37.252;2022-09-09T15:06:22;2.58;;;1.10;;
46110;SDS011;31849;55.992;37.252;2022-09-09T15:11:28;3.58;;;1.30;;
46110;SDS011;31849;55.992;37.252;2022-09-09T15:16:36;2.95;;;1.33;;
46110;SDS011;31849;55.992;37.252;2022-09-09T15:21:41;2.38;;;1.20;;
46110;SDS011;31849;55.992;37.252;2022-09-09T15:31:51;2.90;;;1.42;;
46110;SDS011;31849;55.992;37.252;2022-09-09T15:36:57;4.13;;;1.65;;
46110;SDS011;31849;55.992;37.252;2022-09-09T15:42:02;3.22;;;1.50;;
46110;SDS011;31849;55.992;37.252;2022-09-09T15:47:09;6.53;;;1.80;;
46110;SDS011;31849;55.992;37.252;2022-09-09T15:52:16;4.55;;;1.60;;
46110;SDS011;31849;55.992;37.252;2022-09-09T15:57:20;3.10;;;1.60;;
46110;SDS011;31849;55.992;37.252;2022-09-09T16:02:25;2.83;;;1.50;;
46110;SDS011;31849;55.992;37.252;2022-09-09T16:07:29;11.30;;;4.38;;
46110;SDS011;31849;55.992;37.252;2022-09-09T16:12:34;5.65;;;2.72;;
46110;SDS011;31849;55.992;37.252;2022-09-09T16:17:39;9.83;;;6.27;;
46110;SDS011;31849;55.992;37.252;2022-09-09T16:22:43;8.30;;;2.83;;
46110;SDS011;31849;55.992;37.252;2022-09-09T16:27:47;7.25;;;2.83;;
46110;SDS011;31849;55.992;37.252;2022-09-09T16:32:53;7.50;;;2.47;;
46110;SDS011;31849;55.992;37.252;2022-09-09T16:37:57;9.15;;;3.10;;
46110;SDS011;31849;55.992;37.252;2022-09-09T16:48:06;5.45;;;2.92;;
46110;SDS011;31849;55.992;37.252;2022-09-09T16:53:11;8.45;;;3.08;;
46110;SDS011;31849;55.992;37.252;2022-09-09T16:58:15;9.57;;;3.93;;
46110;SDS011;31849;55.992;37.252;2022-09-09T17:03:21;10.18;;;4.35;;
46110;SDS011;31849;55.992;37.252;2022-09-09T17:08:25;12.05;;;4.80;;
46110;SDS011;31849;55.992;37.252;2022-09-09T17:13:29;8.68;;;4.35;;
46110;SDS011;31849;55.992;37.252;2022-09-09T17:18:36;10.93;;;4.53;;
46110;SDS011;31849;55.992;37.252;2022-09-09T17:23:41;9.85;;;4.93;;
46110;SDS011;31849;55.992;37.252;2022-09-09T17:28:45;10.07;;;5.03;;
46110;SDS011;31849;55.992;37.252;2022-09-09T17:33:51;7.80;;;5.00;;
46110;SDS011;31849;55.992;37.252;2022-09-09T17:38:55;10.77;;;5.45;;
46110;SDS011;31849;55.992;37.252;2022-09-09T17:44:00;12.00;;;6.55;;
46110;SDS011;31849;55.992;37.252;2022-09-09T17:49:06;13.75;;;7.13;;
46110;SDS011;31849;55.992;37.252;2022-09-09T17:54:13;18.98;;;7.80;;
46110;SDS011;31849;55.992;37.252;2022-09-09T17:59:18;15.80;;;7.82;;
46110;SDS011;31849;55.992;37.252;2022-09-09T18:04:24;18.23;;;7.65;;
46110;SDS011;31849;55.992;37.252;2022-09-09T18:09:28;18.23;;;7.28;;
46110;SDS011;31849;55.992;37.252;2022-09-09T18:14:34;12.60;;;6.55;;
46110;SDS011;31849;55.992;37.252;2022-09-09T18:19:39;13.70;;;6.15;;
46110;SDS011;31849;55.992;37.252;2022-09-09T18:24:43;15.32;;;6.72;;
46110;SDS011;31849;55.992;37.252;2022-09-09T18:29:49;15.07;;;7.10;;
46110;SDS011;31849;55.992;37.252;2022-09-09T18:34:54;16.75;;;7.03;;
46110;SDS011;31849;55.992;37.252;2022-09-09T18:39:59;13.15;;;6.72;;
46110;SDS011;31849;55.992;37.252;2022-09-09T18:45:05;15.18;;;6.80;;
46110;SDS011;31849;55.992;37.252;2022-09-09T18:50:10;18.23;;;8.17;;
46110;SDS011;31849;55.992;37.252;2022-09-09T18:55:15;13.35;;;6.85;;
46110;SDS011;31849;55.992;37.252;2022-09-09T19:00:18;14.87;;;6.60;;
46110;SDS011;31849;55.992;37.252;2022-09-09T19:05:24;13.88;;;7.25;;
46110;SDS011;31849;55.992;37.252;2022-09-09T19:10:28;20.73;;;8.50;;
46110;SDS011;31849;55.992;37.252;2022-09-09T19:25:45;11.23;;;6.78;;
46110;SDS011;31849;55.992;37.252;2022-09-09T19:30:52;12.93;;;6.60;;
46110;SDS011;31849;55.992;37.252;2022-09-09T19:36:00;14.35;;;6.45;;
46110;SDS011;31849;55.992;37.252;2022-09-09T19:41:07;12.43;;;6.85;;
46110;SDS011;31849;55.992;37.252;2022-09-09T19:46:13;16.38;;;7.20;;
46110;SDS011;31849;55.992;37.252;2022-09-09T19:56:26;15.25;;;7.13;;
46110;SDS011;31849;55.992;37.252;2022-09-09T20:01:30;13.60;;;7.43;;
46110;SDS011;31849;55.992;37.252;2022-09-09T20:06:42;15.00;;;7.72;;
46110;SDS011;31849;55.992;37.252;2022-09-09T20:11:48;13.20;;;7.30;;
46110;SDS011;31849;55.992;37.252;2022-09-09T20:16:52;14.48;;;7.30;;
46110;SDS011;31849;55.992;37.252;2022-09-09T20:27:03;11.75;;;7.55;;
46110;SDS011;31849;55.992;37.252;2022-09-09T20:32:08;14.02;;;6.97;;
46110;SDS011;31849;55.992;37.252;2022-09-09T20:37:14;10.88;;;7.45;;
46110;SDS011;31849;55.992;37.252;2022-09-09T20:42:19;14.65;;;7.75;;
46110;SDS011;31849;55.992;37.252;2022-09-09T20:47:23;14.43;;;7.25;;
46110;SDS011;31849;55.992;37.252;2022-09-09T20:52:28;13.48;;;8.38;;
46110;SDS011;31849;55.992;37.252;2022-09-09T20:57:34;25.65;;;8.85;;
46110;SDS011;31849;55.992;37.252;2022-09-09T21:02:38;14.98;;;8.77;;
46110;SDS011;31849;55.992;37.252;2022-09-09T21:07:43;16.63;;;9.00;;
46110;SDS011;31849;55.992;37.252;2022-09-09T21:12:48;12.10;;;7.88;;
46110;SDS011;31849;55.992;37.252;2022-09-09T21:17:51;15.32;;;7.90;;
46110;SDS011;31849;55.992;37.252;2022-09-09T21:22:57;9.68;;;6.57;;
46110;SDS011;31849;55.992;37.252;2022-09-09T21:28:02;13.90;;;7.00;;
46110;SDS011;31849;55.992;37.252;2022-09-09T21:33:07;11.05;;;8.02;;
46110;SDS011;31849;55.992;37.252;2022-09-09T21:38:15;14.30;;;8.27;;
46110;SDS011;31849;55.992;37.252;2022-09-09T21:43:20;12.45;;;7.13;;
46110;SDS011;31849;55.992;37.252;2022-09-09T21:48:24;13.63;;;7.63;;
46110;SDS011;31849;55.992;37.252;2022-09-09T21:53:30;12.40;;;8.00;;
46110;SDS011;31849;55.992;37.252;2022-09-09T21:58:35;12.48;;;8.20;;
46110;SDS011;31849;55.992;37.252;2022-09-09T22:03:39;12.70;;;8.48;;
46110;SDS011;31849;55.992;37.252;2022-09-09T22:08:44;17.57;;;9.77;;
46110;SDS011;31849;55.992;37.252;2022-09-09T22:13:49;14.57;;;8.93;;
46110;SDS011;31849;55.992;37.252;2022-09-09T22:18:55;13.15;;;8.57;;
46110;SDS011;31849;55.992;37.252;2022-09-09T22:24:03;14.98;;;9.50;;
46110;SDS011;31849;55.992;37.252;2022-09-09T22:29:07;13.40;;;8.32;;
46110;SDS011;31849;55.992;37.252;2022-09-09T22:34:12;15.13;;;8.35;;
46110;SDS011;31849;55.992;37.252;2022-09-09T22:39:17;18.48;;;8.85;;
46110;SDS011;31849;55.992;37.252;2022-09-09T22:44:22;16.63;;;9.30;;
46110;SDS011;31849;55.992;37.252;2022-09-09T22:49:25;14.77;;;9.40;;
46110;SDS011;31849;55.992;37.252;2022-09-09T22:54:31;16.57;;;8.60;;
46110;SDS011;31849;55.992;37.252;2022-09-09T22:59:35;15.25;;;9.18;;
46110;SDS011;31849;55.992;37.252;2022-09-09T23:04:39;14.02;;;9.73;;
46110;SDS011;31849;55.992;37.252;2022-09-09T23:09:44;18.10;;;10.43;;
46110;SDS011;31849;55.992;37.252;2022-09-09T23:14:49;15.85;;;10.13;;
46110;SDS011;31849;55.992;37.252;2022-09-09T23:19:54;19.10;;;10.30;;
46110;SDS011;31849;55.992;37.252;2022-09-09T23:25:01;18.58;;;9.93;;
46110;SDS011;31849;55.992;37.252;2022-09-09T23:30:06;15.45;;;10.20;;
46110;SDS011;31849;55.992;37.252;2022-09-09T23:35:13;19.05;;;9.77;;
46110;SDS011;31849;55.992;37.252;2022-09-09T23:40:18;12.40;;;9.30;;
46110;SDS011;31849;55.992;37.252;2022-09-09T23:45:22;18.50;;;10.77;;
46110;SDS011;31849;55.992;37.252;2022-09-09T23:50:26;16.52;;;10.07;;
46110;SDS011;31849;55.992;37.252;2022-09-09T23:55:32;16.07;;;9.17;;
